createdAt,value
2024-02-08T00:01:50.603Z,69.86
2024-02-08T00:04:20.574Z,71.12
2024-02-08T00:06:51.688Z,73.56
2024-02-08T00:09:22.633Z,70.17
2024-02-08T00:11:51.884Z,66.32
2024-02-08T00:14:25.540Z,66.61
2024-02-08T00:16:56.450Z,63.92
2024-02-08T00:19:29.326Z,64.20
2024-02-08T00:21:58.730Z,64.27
2024-02-08T00:24:35.577Z,64.43
2024-02-08T00:27:07.710Z,66.73
2024-02-08T00:29:44.949Z,69.23
2024-02-08T00:32:13.413Z,68.98
2024-02-08T00:34:42.124Z,72.14
2024-02-08T00:37:10.277Z,73.14
2024-02-08T00:39:45.055Z,74.91
2024-02-08T00:42:13.037Z,76.43
2024-02-08T00:44:51.854Z,79.20
2024-02-08T00:47:22.676Z,79.06
2024-02-08T00:49:52.559Z,81.38
2024-02-08T00:52:22.588Z,82.24
2024-02-08T00:54:56.543Z,84.29
2024-02-08T00:57:31.190Z,85.62
2024-02-08T01:00:06.294Z,87.01
2024-02-08T01:02:37.286Z,87.78
2024-02-08T01:05:09.655Z,86.52
2024-02-08T01:07:41.740Z,85.36
2024-02-08T01:10:14.097Z,86.29
2024-02-08T01:12:46.178Z,88.89
2024-02-08T01:15:25.931Z,92.00
2024-02-08T01:18:00.260Z,92.42
2024-02-08T01:20:34.134Z,93.08
2024-02-08T01:23:07.041Z,94.26
2024-02-08T01:25:45.987Z,97.09
2024-02-08T01:28:24.539Z,96.92
2024-02-08T01:30:56.209Z,97.50
2024-02-08T01:33:25.599Z,98.58
2024-02-08T01:35:58.416Z,100.00
2024-02-08T01:38:28.832Z,100.00
2024-02-08T01:40:56.944Z,100.00
2024-02-08T01:43:27.044Z,100.00
2024-02-08T01:45:59.148Z,100.00
2024-02-08T01:48:29.875Z,100.00
2024-02-08T01:51:04.267Z,100.00
2024-02-08T01:53:37.161Z,100.00
2024-02-08T01:56:10.277Z,100.00
2024-02-08T01:58:51.717Z,100.00
2024-02-08T02:01:24.005Z,100.00
2024-02-08T02:03:52.150Z,100.00
2024-02-08T02:06:20.802Z,100.00
2024-02-08T02:08:59.393Z,100.00
2024-02-08T02:11:49.814Z,100.00
2024-02-08T02:14:25.691Z,100.00
2024-02-08T02:17:05.357Z,100.00
2024-02-08T02:19:34.252Z,100.00
2024-02-08T02:22:02.993Z,100.00
2024-02-08T02:24:31.543Z,100.00
2024-02-08T02:27:02.348Z,100.00
2024-02-08T02:29:37.083Z,100.00
2024-02-08T02:32:08.420Z,100.00
2024-02-08T02:34:43.649Z,100.00
2024-02-08T02:37:13.117Z,100.00
2024-02-08T02:39:41.707Z,100.00
2024-02-08T02:42:13.328Z,100.00
2024-02-08T02:44:42.377Z,100.00
2024-02-08T02:47:14.542Z,100.00
2024-02-08T02:49:44.800Z,100.00
2024-02-08T02:52:16.058Z,100.00
2024-02-08T02:54:44.504Z,100.00
2024-02-08T02:57:13.511Z,100.00
2024-02-08T02:59:46.218Z,100.00
2024-02-08T03:02:19.099Z,100.00
2024-02-08T03:04:51.221Z,100.00
2024-02-08T03:07:20.183Z,100.00
2024-02-08T03:09:47.918Z,100.00
2024-02-08T03:12:15.816Z,100.00
2024-02-08T03:14:59.413Z,100.00
2024-02-08T03:17:27.796Z,100.00
2024-02-08T03:19:56.260Z,100.00
2024-02-08T03:22:25.309Z,100.00
2024-02-08T03:24:57.040Z,100.00
2024-02-08T03:27:35.434Z,100.00
2024-02-08T03:30:09.798Z,100.00
2024-02-08T03:33:04.010Z,97.35
2024-02-08T03:35:38.583Z,99.45
2024-02-08T03:38:13.054Z,97.84
2024-02-08T03:40:45.735Z,97.07
2024-02-08T03:43:19.279Z,97.82
2024-02-08T03:45:57.653Z,96.80
2024-02-08T03:48:30.943Z,95.24
2024-02-08T03:51:02.923Z,93.52
2024-02-08T03:53:39.697Z,92.85
2024-02-08T03:56:08.898Z,93.85
2024-02-08T03:58:39.550Z,94.60
2024-02-08T04:01:10.705Z,95.97
2024-02-08T04:03:55.355Z,94.72
2024-02-08T04:06:52.881Z,95.72
2024-02-08T04:09:36.053Z,94.85
2024-02-08T04:12:24.147Z,97.40
2024-02-08T04:15:11.022Z,96.29
2024-02-08T04:17:58.916Z,94.39
2024-02-08T04:20:49.041Z,94.73
2024-02-08T04:23:36.408Z,93.12
2024-02-08T04:26:24.835Z,95.57
2024-02-08T04:29:14.692Z,94.99
2024-02-08T04:32:01.327Z,96.37
2024-02-08T04:34:47.904Z,93.40
2024-02-08T04:37:34.366Z,92.69
2024-02-08T04:40:21.089Z,93.55
2024-02-08T04:43:08.698Z,95.21
2024-02-08T04:45:56.517Z,93.31
2024-02-08T04:48:46.210Z,95.55
2024-02-08T04:51:32.995Z,93.92
2024-02-08T04:54:04.408Z,93.59
2024-02-08T04:56:33.256Z,94.69
2024-02-08T04:59:20.359Z,95.03
2024-02-08T05:01:51.567Z,94.87
2024-02-08T05:04:22.961Z,95.58
2024-02-08T05:06:54.925Z,95.62
2024-02-08T05:09:25.799Z,97.16
2024-02-08T05:11:55.858Z,96.73
2024-02-08T05:14:36.728Z,97.63
2024-02-08T05:17:13.041Z,97.11
2024-02-08T05:19:46.532Z,96.71
2024-02-08T05:22:15.487Z,93.93
2024-02-08T05:24:46.781Z,94.83
2024-02-08T05:27:18.614Z,95.18
2024-02-08T05:29:49.139Z,92.97
2024-02-08T05:32:17.696Z,93.46
2024-02-08T05:34:46.752Z,92.60
2024-02-08T05:37:15.057Z,91.61
2024-02-08T05:39:43.173Z,91.33
2024-02-08T05:42:11.938Z,91.83
2024-02-08T05:44:42.838Z,90.75
2024-02-08T05:47:12.076Z,91.59
2024-02-08T05:49:47.952Z,90.91
2024-02-08T05:52:18.727Z,92.67
2024-02-08T05:55:20.832Z,92.29
2024-02-08T06:01:49.297Z,93.12
2024-02-08T06:04:27.110Z,92.50
2024-02-08T06:07:06.732Z,93.68
2024-02-08T06:09:47.562Z,93.51
2024-02-08T06:12:39.514Z,92.81
2024-02-08T06:15:22.683Z,94.32
2024-02-08T06:18:00.407Z,94.38
2024-02-08T06:20:37.994Z,94.91
2024-02-08T06:23:20.346Z,97.04
2024-02-08T06:26:11.823Z,97.14
2024-02-08T06:28:54.944Z,98.36
2024-02-08T06:31:35.029Z,98.84
2024-02-08T06:34:12.121Z,98.39
2024-02-08T06:36:51.324Z,98.40
2024-02-08T06:39:25.667Z,98.00
2024-02-08T06:42:13.873Z,98.42
2024-02-08T06:44:54.513Z,97.55
2024-02-08T06:47:52.069Z,94.53
2024-02-08T06:50:38.480Z,94.49
2024-02-08T06:53:24.995Z,93.86
2024-02-08T06:56:18.074Z,91.23
2024-02-08T06:59:04.571Z,89.96
2024-02-08T07:01:51.505Z,92.13
2024-02-08T07:04:38.303Z,91.50
2024-02-08T07:07:25.319Z,91.04
2024-02-08T07:10:12.702Z,91.58
2024-02-08T07:12:59.925Z,91.96
2024-02-08T07:15:46.479Z,92.04
2024-02-08T07:18:33.186Z,93.53
2024-02-08T07:21:20.304Z,92.46
2024-02-08T07:24:06.546Z,93.96
2024-02-08T07:26:52.831Z,91.71
2024-02-08T07:29:39.666Z,90.16
2024-02-08T07:32:27.853Z,87.79
2024-02-08T07:35:14.156Z,86.22
2024-02-08T07:37:43.792Z,85.82
2024-02-08T07:40:24.954Z,86.00
2024-02-08T07:43:16.377Z,85.24
2024-02-08T07:46:06.180Z,85.85
2024-02-08T07:48:41.024Z,85.07
2024-02-08T07:51:09.999Z,83.49
2024-02-08T07:53:53.473Z,84.70
2024-02-08T07:56:25.489Z,87.66
2024-02-08T07:58:58.456Z,83.95
2024-02-08T08:01:34.344Z,84.96
2024-02-08T08:04:03.586Z,84.44
2024-02-08T08:06:48.526Z,84.16
2024-02-08T08:09:20.852Z,81.30
2024-02-08T08:11:54.059Z,81.72
2024-02-08T08:14:57.981Z,78.58
2024-02-08T08:17:25.885Z,77.64
2024-02-08T08:19:53.957Z,76.20
2024-02-08T08:22:27.926Z,78.26
2024-02-08T08:25:13.510Z,80.21
2024-02-08T08:27:49.217Z,85.60
2024-02-08T08:30:32.125Z,84.57
2024-02-08T08:33:02.723Z,85.63
2024-02-08T08:35:56.225Z,86.49
2024-02-08T08:38:24.806Z,87.42
2024-02-08T08:41:05.960Z,89.57
2024-02-08T08:43:37.414Z,90.20
2024-02-08T08:46:12.399Z,88.46
2024-02-08T08:48:44.555Z,89.78
2024-02-08T08:51:13.542Z,88.79
2024-02-08T08:53:45.649Z,81.80
2024-02-08T09:00:11.222Z,82.61
2024-02-08T09:02:44.805Z,79.66
2024-02-08T09:05:19.442Z,80.22
2024-02-08T09:07:48.277Z,79.47
2024-02-08T09:10:16.140Z,79.55
2024-02-08T09:13:01.763Z,78.67
2024-02-08T09:15:30.145Z,78.64
2024-02-08T09:18:10.536Z,78.78
2024-02-08T09:20:39.956Z,79.09
2024-02-08T09:23:19.317Z,80.64
2024-02-08T09:25:47.808Z,80.68
2024-02-08T09:28:26.555Z,81.28
2024-02-08T09:30:57.758Z,79.63
2024-02-08T09:33:32.344Z,80.46
2024-02-08T09:36:05.068Z,82.04
2024-02-08T09:38:45.655Z,84.15
2024-02-08T09:41:41.213Z,84.57
2024-02-08T09:44:13.376Z,83.48
2024-02-08T09:46:45.525Z,85.70
2024-02-08T09:49:20.033Z,84.20
2024-02-08T09:51:57.220Z,83.99
2024-02-08T09:54:33.729Z,82.49
2024-02-08T09:57:04.404Z,83.56
2024-02-08T09:59:55.429Z,81.87
2024-02-08T10:02:35.375Z,84.16
2024-02-08T10:05:23.773Z,81.91
2024-02-08T10:08:11.290Z,85.25
2024-02-08T10:11:00.340Z,88.02
2024-02-08T10:13:53.499Z,90.30
2024-02-08T10:16:32.410Z,87.56
2024-02-08T10:19:05.544Z,88.12
2024-02-08T10:21:38.117Z,87.86
2024-02-08T10:24:25.552Z,85.58
2024-02-08T10:26:55.410Z,87.06
2024-02-08T10:29:26.636Z,87.02
2024-02-08T10:32:02.174Z,84.67
2024-02-08T10:34:35.771Z,85.19
2024-02-08T10:37:08.419Z,84.83
2024-02-08T10:39:59.808Z,82.48
2024-02-08T10:42:40.219Z,79.30
2024-02-08T10:45:08.794Z,79.30
2024-02-08T10:47:57.533Z,76.66
2024-02-08T10:50:29.495Z,76.07
2024-02-08T10:53:02.632Z,78.26
2024-02-08T10:55:39.003Z,77.13
2024-02-08T10:58:10.860Z,77.91
2024-02-08T11:00:44.022Z,79.21
2024-02-08T11:03:35.673Z,80.97
2024-02-08T11:06:09.872Z,80.80
2024-02-08T11:08:52.345Z,80.09
2024-02-08T11:11:24.399Z,77.86
2024-02-08T11:13:55.120Z,77.83
2024-02-08T11:16:35.475Z,77.51
2024-02-08T11:19:06.432Z,76.42
2024-02-08T11:21:46.716Z,74.86
2024-02-08T11:24:31.361Z,75.14
2024-02-08T11:27:04.498Z,76.54
2024-02-08T11:29:49.178Z,77.18
2024-02-08T11:32:22.179Z,74.74
2024-02-08T11:34:56.606Z,74.88
2024-02-08T11:37:32.831Z,73.27
2024-02-08T11:40:02.875Z,71.64
2024-02-08T11:42:38.706Z,70.39
2024-02-08T11:45:10.987Z,73.17
2024-02-08T11:47:43.815Z,73.71
2024-02-08T11:50:21.672Z,76.75
2024-02-08T11:53:06.252Z,77.33
2024-02-08T11:55:36.846Z,79.17
2024-02-08T11:58:07.538Z,78.60
2024-02-08T12:00:51.150Z,79.06
2024-02-08T12:03:20.219Z,77.72
2024-02-08T12:05:59.030Z,77.20
2024-02-08T12:08:34.311Z,75.13
2024-02-08T12:11:08.681Z,73.82
2024-02-08T12:13:40.953Z,72.27
2024-02-08T12:16:09.338Z,73.90
2024-02-08T12:18:37.961Z,72.67
2024-02-08T12:21:13.092Z,73.58
2024-02-08T12:23:42.436Z,75.29
2024-02-08T12:26:13.474Z,75.36
2024-02-08T12:28:44.969Z,71.30
2024-02-08T12:31:19.927Z,68.66
2024-02-08T12:33:53.714Z,67.00
2024-02-08T12:36:24.996Z,67.69
2024-02-08T12:38:56.598Z,69.39
2024-02-08T12:41:25.483Z,70.04
2024-02-08T12:43:55.279Z,66.74
2024-02-08T12:46:23.789Z,64.60
2024-02-08T12:48:52.525Z,64.63
2024-02-08T12:51:21.438Z,66.97
2024-02-08T12:53:56.686Z,69.13
2024-02-08T12:56:25.045Z,69.86
2024-02-08T12:59:02.809Z,71.72
2024-02-08T13:01:43.225Z,73.02
2024-02-08T13:04:17.039Z,71.06
2024-02-08T13:06:46.115Z,69.49
2024-02-08T13:09:40.155Z,69.24
2024-02-08T13:12:19.144Z,72.23
2024-02-08T13:14:54.029Z,73.76
2024-02-08T13:17:24.885Z,73.90
2024-02-08T13:19:59.112Z,77.48
2024-02-08T13:22:33.072Z,78.09
2024-02-08T13:25:01.923Z,77.06
2024-02-08T13:27:30.802Z,75.43
2024-02-08T13:30:00.695Z,76.38
2024-02-08T13:32:31.143Z,72.56
2024-02-08T13:35:02.711Z,71.35
2024-02-08T13:37:31.035Z,70.18
2024-02-08T13:40:02.288Z,68.60
2024-02-08T13:42:43.303Z,67.70
2024-02-08T13:45:22.069Z,69.49
2024-02-08T13:47:56.335Z,68.85
2024-02-08T13:50:25.478Z,71.79
2024-02-08T13:52:55.078Z,73.91
2024-02-08T13:55:32.502Z,75.75
2024-02-08T13:58:09.947Z,81.25
2024-02-08T14:00:40.179Z,81.11
2024-02-08T14:03:15.698Z,78.31
2024-02-08T14:05:49.692Z,80.81
2024-02-08T14:08:19.424Z,80.02
2024-02-08T14:10:47.941Z,81.98
2024-02-08T14:13:20.613Z,82.24
2024-02-08T14:15:50.057Z,84.28
2024-02-08T14:18:33.474Z,83.05
2024-02-08T14:21:04.042Z,84.98
2024-02-08T14:23:33.025Z,84.92
2024-02-08T14:26:11.798Z,88.05
2024-02-08T14:28:44.506Z,89.50
2024-02-08T14:31:12.751Z,89.16
2024-02-08T14:33:48.575Z,88.40
2024-02-08T14:36:20.275Z,88.49
2024-02-08T14:38:50.195Z,90.03
2024-02-08T14:41:28.470Z,91.00
2024-02-08T14:44:08.366Z,91.56
2024-02-08T14:46:42.077Z,95.20
2024-02-08T14:49:28.212Z,95.92
2024-02-08T14:52:04.727Z,97.47
2024-02-08T14:54:33.510Z,97.57
2024-02-08T14:57:07.783Z,100.00
2024-02-08T14:59:52.857Z,100.00
2024-02-08T15:02:24.757Z,100.00
2024-02-08T15:05:02.589Z,99.63
2024-02-08T15:07:50.284Z,95.47
2024-02-08T15:10:23.187Z,95.37
2024-02-08T15:12:58.688Z,92.53
2024-02-08T15:15:35.582Z,84.28
2024-02-08T15:18:16.680Z,82.66
2024-02-08T15:20:48.053Z,84.39
2024-02-08T15:23:37.316Z,84.73
2024-02-08T15:26:14.949Z,86.71
2024-02-08T15:28:57.296Z,84.02
2024-02-08T15:31:52.610Z,88.00
2024-02-08T15:34:29.400Z,87.09
2024-02-08T15:37:17.921Z,87.44
2024-02-08T15:39:45.594Z,87.81
2024-02-08T15:42:20.062Z,82.52
2024-02-08T15:44:54.763Z,85.22
2024-02-08T15:47:23.465Z,88.35
2024-02-08T15:49:56.229Z,87.46
2024-02-08T15:52:36.277Z,90.73
2024-02-08T15:55:17.163Z,90.11
2024-02-08T15:57:56.369Z,90.64
2024-02-08T16:00:43.741Z,88.59
2024-02-08T16:03:19.671Z,84.69
2024-02-08T16:05:48.119Z,81.37
2024-02-08T16:08:16.214Z,81.29
2024-02-08T16:10:46.341Z,81.15
2024-02-08T16:13:15.320Z,76.42
2024-02-08T16:16:09.812Z,76.52
2024-02-08T16:18:37.870Z,74.97
2024-02-08T16:21:07.724Z,75.18
2024-02-08T16:23:48.658Z,75.38
2024-02-08T16:26:19.525Z,75.23
2024-02-08T16:28:51.367Z,73.17
2024-02-08T16:31:19.828Z,72.56
2024-02-08T16:33:57.155Z,72.27
2024-02-08T16:36:29.336Z,72.13
2024-02-08T16:39:29.095Z,71.30
2024-02-08T16:42:05.349Z,70.25
2024-02-08T16:44:51.841Z,68.25
2024-02-08T16:47:29.608Z,67.45
2024-02-08T16:50:01.060Z,66.63
2024-02-08T16:52:41.173Z,65.98
2024-02-08T16:55:23.173Z,65.60
2024-02-08T16:58:02.987Z,65.86
2024-02-08T17:00:38.136Z,66.31
2024-02-08T17:03:19.297Z,65.04
2024-02-08T17:05:58.369Z,64.82
2024-02-08T17:08:31.813Z,65.86
2024-02-08T17:11:03.219Z,65.32
2024-02-08T17:13:46.521Z,65.31
2024-02-08T17:16:36.847Z,64.36
2024-02-08T17:19:30.986Z,64.98
2024-02-08T17:22:30.512Z,63.02
2024-02-08T17:25:05.312Z,62.11
2024-02-08T17:27:33.591Z,62.46
2024-02-08T17:30:07.078Z,61.08
2024-02-08T17:32:35.188Z,62.08
2024-02-08T17:35:03.422Z,61.52
2024-02-08T17:37:47.662Z,62.85
2024-02-08T17:40:20.900Z,65.12
2024-02-08T17:43:00.375Z,65.26
2024-02-08T17:45:51.351Z,66.19
2024-02-08T17:48:22.061Z,67.35
2024-02-08T17:50:50.074Z,68.00
2024-02-08T17:53:23.399Z,68.51
2024-02-08T17:55:52.102Z,67.73
2024-02-08T17:58:24.423Z,66.72
2024-02-08T18:00:53.065Z,66.63
2024-02-08T18:03:35.453Z,69.20
2024-02-08T18:06:07.693Z,71.06
2024-02-08T18:08:40.341Z,72.13
2024-02-08T18:11:09.758Z,71.76
2024-02-08T18:13:39.796Z,71.70
2024-02-08T18:16:15.781Z,72.02
2024-02-08T18:18:43.812Z,70.41
2024-02-08T18:21:15.666Z,72.71
2024-02-08T18:23:50.111Z,72.43
2024-02-08T18:26:33.350Z,73.56
2024-02-08T18:29:05.284Z,72.73
2024-02-08T18:31:34.467Z,74.49
2024-02-08T18:34:02.948Z,73.43
2024-02-08T18:36:32.608Z,72.25
2024-02-08T18:39:00.854Z,71.50
2024-02-08T18:41:30.327Z,73.37
2024-02-08T18:43:59.917Z,75.02
2024-02-08T18:46:29.621Z,77.14
2024-02-08T18:49:03.101Z,79.52
2024-02-08T18:51:32.378Z,80.72
2024-02-08T18:54:01.044Z,82.80
2024-02-08T18:56:32.947Z,82.53
2024-02-08T18:59:07.626Z,84.67
2024-02-08T19:01:44.618Z,85.85
2024-02-08T19:04:21.497Z,86.82
2024-02-08T19:06:49.872Z,86.49
2024-02-08T19:09:20.618Z,86.24
2024-02-08T19:11:48.616Z,84.58
2024-02-08T19:14:18.041Z,84.19
2024-02-08T19:16:45.967Z,84.02
2024-02-08T19:19:14.933Z,84.72
2024-02-08T19:21:43.460Z,85.69
2024-02-08T19:24:16.997Z,86.18
2024-02-08T19:26:47.876Z,86.00
2024-02-08T19:29:19.381Z,86.09
2024-02-08T19:31:47.769Z,86.50
2024-02-08T19:34:19.908Z,87.62
2024-02-08T19:36:55.411Z,89.89
2024-02-08T19:39:29.116Z,90.89
2024-02-08T19:41:58.390Z,91.78
2024-02-08T19:44:28.565Z,93.39
2024-02-08T19:47:08.441Z,93.67
2024-02-08T19:49:40.908Z,93.65
2024-02-08T19:52:16.715Z,94.35
2024-02-08T19:54:51.539Z,94.97
2024-02-08T19:57:22.814Z,96.18
2024-02-08T19:59:50.594Z,96.16
2024-02-08T20:02:36.020Z,97.21
2024-02-08T20:05:06.415Z,98.52
2024-02-08T20:07:41.010Z,97.28
2024-02-08T20:10:16.347Z,96.83
2024-02-08T20:12:46.686Z,96.40
2024-02-08T20:15:19.570Z,96.68
2024-02-08T20:17:51.479Z,97.99
2024-02-08T20:20:20.688Z,98.20
2024-02-08T20:22:53.924Z,98.67
2024-02-08T20:25:48.067Z,98.55
2024-02-08T20:28:45.807Z,98.98
2024-02-08T20:31:18.983Z,97.10
2024-02-08T20:33:47.303Z,96.22
2024-02-08T20:36:16.065Z,96.03
2024-02-08T20:38:44.276Z,94.84
2024-02-08T20:41:12.554Z,94.17
2024-02-08T20:43:50.068Z,93.30
2024-02-08T20:46:19.381Z,92.34
2024-02-08T20:48:48.113Z,93.50
2024-02-08T20:51:18.417Z,94.35
2024-02-08T20:53:46.416Z,95.18
2024-02-08T20:56:24.100Z,96.71
2024-02-08T20:58:52.703Z,97.47
2024-02-08T21:01:20.806Z,97.92
2024-02-08T21:03:49.035Z,97.92
2024-02-08T21:06:18.062Z,99.95
2024-02-08T21:08:47.436Z,100.00
2024-02-08T21:11:16.226Z,100.00
2024-02-08T21:13:50.050Z,99.46
2024-02-08T21:16:21.438Z,97.13
2024-02-08T21:18:52.818Z,96.84
2024-02-08T21:21:20.843Z,95.43
2024-02-08T21:23:48.539Z,95.37
2024-02-08T21:26:22.234Z,96.61
2024-02-08T21:28:53.041Z,95.02
2024-02-08T21:31:21.055Z,96.29
2024-02-08T21:33:52.208Z,95.88
2024-02-08T21:36:26.696Z,95.76
2024-02-08T21:38:55.271Z,94.24
2024-02-08T21:41:23.595Z,94.25
2024-02-08T21:43:52.052Z,95.70
2024-02-08T21:46:22.920Z,96.83
2024-02-08T21:48:51.551Z,97.95
2024-02-08T21:51:19.624Z,100.00
2024-02-08T21:53:49.837Z,100.00
2024-02-08T21:56:20.439Z,100.00
2024-02-08T21:58:49.062Z,100.00
2024-02-08T22:01:36.957Z,100.00
2024-02-08T22:04:05.743Z,100.00
2024-02-08T22:06:34.753Z,100.00
2024-02-08T22:09:11.133Z,100.00
2024-02-08T22:11:49.715Z,100.00
2024-02-08T22:14:17.391Z,100.00
2024-02-08T22:16:45.446Z,95.21
2024-02-08T22:19:16.215Z,90.90
2024-02-08T22:21:46.698Z,95.71
2024-02-08T22:24:15.793Z,98.25
2024-02-08T22:26:49.779Z,97.26
2024-02-08T22:29:17.863Z,97.43
2024-02-08T22:31:51.904Z,100.00
2024-02-08T22:34:20.938Z,100.00
2024-02-08T22:36:48.912Z,100.00
2024-02-08T22:39:17.569Z,100.00
2024-02-08T22:41:49.227Z,100.00
2024-02-08T22:44:17.836Z,100.00
2024-02-08T22:46:46.089Z,100.00
2024-02-08T22:49:14.837Z,100.00
2024-02-08T22:51:47.675Z,100.00
2024-02-08T22:54:15.596Z,100.00
2024-02-08T22:56:43.547Z,100.00
2024-02-08T22:59:11.660Z,100.00
2024-02-08T23:01:44.631Z,100.00
2024-02-08T23:04:15.611Z,100.00
2024-02-08T23:06:44.067Z,100.00
2024-02-08T23:09:17.613Z,100.00
2024-02-08T23:11:47.752Z,100.00
2024-02-08T23:14:20.187Z,100.00
2024-02-08T23:16:53.069Z,100.00
2024-02-08T23:19:21.691Z,100.00
2024-02-08T23:21:58.792Z,100.00
2024-02-08T23:24:27.038Z,100.00
2024-02-08T23:26:55.057Z,100.00
2024-02-08T23:29:26.358Z,100.00
2024-02-08T23:31:56.225Z,100.00
2024-02-08T23:34:25.621Z,100.00
2024-02-08T23:36:56.442Z,100.00
2024-02-08T23:39:29.209Z,100.00
2024-02-08T23:42:00.124Z,100.00
2024-02-08T23:44:30.775Z,100.00
2024-02-08T23:46:59.815Z,100.00
2024-02-08T23:49:27.977Z,100.00
2024-02-08T23:51:57.494Z,100.00
2024-02-08T23:54:25.315Z,100.00
2024-02-08T23:56:56.573Z,100.00
2024-02-08T23:59:29.889Z,100.00
